createdAt,value
2018-03-22T00:00:54.575Z,11.10
2018-03-22T00:01:54.567Z,11.10
2018-03-22T00:02:54.560Z,12.00
2018-03-22T00:03:54.548Z,14.40
2018-03-22T00:04:54.542Z,13.60
2018-03-22T00:05:54.531Z,14.10
2018-03-22T00:06:54.524Z,11.50
2018-03-22T00:07:54.515Z,13.10
2018-03-22T00:08:54.508Z,13.30
2018-03-22T00:09:54.504Z,14.00
2018-03-22T00:10:54.491Z,11.80
2018-03-22T00:11:54.484Z,12.10
2018-03-22T00:12:54.474Z,13.50
2018-03-22T00:13:54.467Z,13.50
2018-03-22T00:14:54.458Z,12.60
2018-03-22T00:15:54.450Z,13.20
2018-03-22T00:16:54.442Z,16.10
2018-03-22T00:17:54.434Z,13.40
2018-03-22T00:18:54.427Z,13.40
2018-03-22T00:19:54.417Z,13.80
2018-03-22T00:20:54.409Z,12.70
2018-03-22T00:21:54.403Z,14.10
2018-03-22T00:22:54.394Z,14.10
2018-03-22T00:23:54.384Z,12.70
2018-03-22T00:24:54.375Z,13.30
2018-03-22T00:25:54.381Z,14.00
2018-03-22T00:26:54.362Z,15.00
2018-03-22T00:27:54.351Z,14.20
2018-03-22T00:28:54.348Z,15.20
2018-03-22T00:29:54.349Z,15.30
2018-03-22T00:30:54.328Z,14.90
2018-03-22T00:31:54.320Z,12.50
2018-03-22T00:32:54.352Z,15.50
2018-03-22T00:33:54.307Z,15.30
2018-03-22T00:34:54.299Z,14.00
2018-03-22T00:35:54.287Z,14.60
2018-03-22T00:36:54.277Z,14.10
2018-03-22T00:37:54.268Z,15.30
2018-03-22T00:38:54.258Z,15.00
2018-03-22T00:39:54.256Z,13.60
2018-03-22T00:40:54.257Z,16.20
2018-03-22T00:41:54.239Z,15.70
2018-03-22T00:42:54.230Z,14.10
2018-03-22T00:43:54.221Z,14.40
2018-03-22T00:44:54.214Z,15.20
2018-03-22T00:45:54.213Z,15.20
2018-03-22T00:46:54.235Z,13.70
2018-03-22T00:47:54.187Z,13.40
2018-03-22T00:48:54.176Z,12.90
2018-03-22T00:49:54.174Z,13.70
2018-03-22T00:50:54.175Z,15.40
2018-03-22T00:51:54.155Z,14.50
2018-03-22T00:52:54.144Z,16.00
2018-03-22T00:53:54.142Z,16.40
2018-03-22T00:54:54.132Z,15.20
2018-03-22T00:55:54.130Z,17.40
2018-03-22T00:56:54.119Z,15.10
2018-03-22T00:57:54.107Z,15.90
2018-03-22T00:58:54.105Z,15.50
2018-03-22T00:59:54.095Z,16.20
2018-03-22T01:00:54.080Z,13.70
2018-03-22T01:01:54.083Z,15.30
2018-03-22T01:02:54.070Z,15.60
2018-03-22T01:03:54.058Z,16.30
2018-03-22T01:04:54.064Z,14.30
2018-03-22T01:05:54.061Z,16.70
2018-03-22T01:06:54.033Z,15.80
2018-03-22T01:07:54.023Z,17.10
2018-03-22T01:08:54.019Z,15.30
2018-03-22T01:09:54.010Z,15.10
2018-03-22T01:10:54.010Z,16.00
2018-03-22T01:11:53.995Z,15.60
2018-03-22T01:12:54.010Z,16.50
2018-03-22T01:13:53.979Z,15.40
2018-03-22T01:14:53.979Z,16.50
2018-03-22T01:15:53.959Z,17.90
2018-03-22T01:16:53.955Z,15.10
2018-03-22T01:17:53.947Z,14.20
2018-03-22T01:18:53.945Z,15.20
2018-03-22T01:19:53.928Z,15.00
2018-03-22T01:20:53.932Z,14.20
2018-03-22T01:21:53.918Z,15.40
2018-03-22T01:22:53.902Z,15.20
2018-03-22T01:23:53.897Z,15.50
2018-03-22T01:24:53.887Z,13.70
2018-03-22T01:25:53.888Z,15.00
2018-03-22T01:26:53.880Z,15.40
2018-03-22T01:27:53.860Z,16.70
2018-03-22T01:28:53.853Z,16.40
2018-03-22T01:29:53.855Z,15.40
2018-03-22T01:30:53.838Z,18.00
2018-03-22T01:31:53.852Z,15.30
2018-03-22T01:32:53.840Z,16.60
2018-03-22T01:33:53.812Z,16.10
2018-03-22T01:34:53.816Z,16.60
2018-03-22T01:35:53.795Z,14.30
2018-03-22T01:36:53.797Z,14.50
2018-03-22T01:37:53.780Z,18.40
2018-03-22T01:38:53.774Z,16.10
2018-03-22T01:39:53.774Z,16.70
2018-03-22T01:40:53.755Z,17.50
2018-03-22T01:41:53.747Z,15.40
2018-03-22T01:42:53.742Z,17.20
2018-03-22T01:43:53.735Z,18.30
2018-03-22T01:44:53.723Z,16.20
2018-03-22T01:45:53.724Z,16.40
2018-03-22T01:46:53.716Z,16.90
2018-03-22T01:47:53.700Z,16.20
2018-03-22T01:48:53.701Z,15.10
2018-03-22T01:49:53.682Z,16.50
2018-03-22T01:50:53.671Z,15.50
2018-03-22T01:51:53.665Z,15.50
2018-03-22T01:52:53.661Z,16.90
2018-03-22T01:53:53.648Z,17.00
2018-03-22T01:54:53.645Z,17.00
2018-03-22T01:55:53.633Z,18.80
2018-03-22T01:56:53.635Z,15.00
2018-03-22T01:57:53.613Z,17.40
2018-03-22T01:58:53.607Z,15.60
2018-03-22T01:59:53.598Z,16.80
2018-03-22T02:00:53.591Z,16.20
2018-03-22T02:01:53.644Z,16.30
2018-03-22T02:02:53.569Z,17.20
2018-03-22T02:03:53.573Z,17.50
2018-03-22T02:04:53.550Z,15.90
2018-03-22T02:05:53.548Z,17.20
2018-03-22T02:06:53.539Z,17.50
2018-03-22T02:07:53.528Z,16.50
2018-03-22T02:08:53.524Z,18.70
2018-03-22T02:09:53.515Z,16.40
2018-03-22T02:10:53.511Z,19.90
2018-03-22T02:11:53.497Z,16.70
2018-03-22T02:12:53.510Z,18.00
2018-03-22T02:13:53.478Z,18.10
2018-03-22T02:14:53.475Z,16.80
2018-03-22T02:15:53.466Z,17.20
2018-03-22T02:16:53.456Z,17.10
2018-03-22T02:17:53.452Z,15.60
2018-03-22T02:18:53.436Z,18.50
2018-03-22T02:19:53.436Z,16.20
2018-03-22T02:20:53.420Z,17.90
2018-03-22T02:21:53.414Z,17.20
2018-03-22T02:22:53.407Z,17.00
2018-03-22T02:23:53.403Z,17.40
2018-03-22T02:24:53.388Z,17.50
2018-03-22T02:25:53.383Z,17.50
2018-03-22T02:26:53.373Z,16.30
2018-03-22T02:27:53.362Z,17.20
2018-03-22T02:28:53.357Z,18.00
2018-03-22T02:29:53.347Z,16.70
2018-03-22T02:30:53.342Z,17.20
2018-03-22T02:31:53.338Z,17.30
2018-03-22T02:32:53.321Z,17.20
2018-03-22T02:33:53.315Z,21.00
2018-03-22T02:34:53.316Z,18.10
2018-03-22T02:35:53.298Z,19.30
2018-03-22T02:36:53.289Z,18.70
2018-03-22T02:37:53.310Z,17.80
2018-03-22T02:38:53.272Z,19.10
2018-03-22T02:39:53.263Z,19.20
2018-03-22T02:40:53.258Z,19.20
2018-03-22T02:41:53.260Z,18.10
2018-03-22T02:42:53.295Z,18.60
2018-03-22T02:43:53.231Z,18.90
2018-03-22T02:44:53.221Z,19.00
2018-03-22T02:45:53.217Z,18.60
2018-03-22T02:46:53.207Z,19.30
2018-03-22T02:47:53.195Z,20.30
2018-03-22T02:48:53.187Z,19.70
2018-03-22T02:49:53.175Z,20.00
2018-03-22T02:50:53.172Z,20.50
2018-03-22T02:51:53.171Z,20.90
2018-03-22T02:52:53.168Z,21.30
2018-03-22T02:53:53.143Z,20.50
2018-03-22T02:54:53.138Z,19.90
2018-03-22T02:55:53.128Z,21.10
2018-03-22T02:56:53.118Z,19.80
2018-03-22T02:57:53.111Z,21.80
2018-03-22T02:58:53.103Z,22.40
2018-03-22T02:59:53.093Z,19.20
2018-03-22T03:00:53.085Z,20.40
2018-03-22T03:01:53.075Z,21.40
2018-03-22T03:02:53.068Z,21.90
2018-03-22T03:03:53.062Z,21.00
2018-03-22T03:04:53.053Z,20.00
2018-03-22T03:05:53.045Z,24.30
2018-03-22T03:06:53.035Z,21.90
2018-03-22T03:07:53.026Z,22.80
2018-03-22T03:08:53.017Z,22.20
2018-03-22T03:09:53.009Z,22.40
2018-03-22T03:10:53.005Z,23.60
2018-03-22T03:11:52.996Z,20.00
2018-03-22T03:12:52.981Z,23.00
2018-03-22T03:13:52.975Z,20.80
2018-03-22T03:14:52.967Z,25.40
2018-03-22T03:15:52.957Z,21.20
2018-03-22T03:16:52.947Z,21.30
2018-03-22T03:17:52.941Z,22.00
2018-03-22T03:18:52.934Z,22.40
2018-03-22T03:19:52.923Z,23.60
2018-03-22T03:20:52.916Z,22.60
2018-03-22T03:21:52.907Z,22.80
2018-03-22T03:22:52.898Z,23.00
2018-03-22T03:23:52.891Z,21.30
2018-03-22T03:24:52.881Z,23.00
2018-03-22T03:25:52.872Z,24.50
2018-03-22T03:26:52.867Z,22.20
2018-03-22T03:27:52.854Z,25.10
2018-03-22T03:28:52.846Z,23.60
2018-03-22T03:29:52.838Z,24.00
2018-03-22T03:30:52.831Z,22.90
2018-03-22T03:31:52.821Z,23.80
2018-03-22T03:32:52.816Z,20.70
2018-03-22T03:33:52.804Z,25.30
2018-03-22T03:34:52.796Z,22.40
2018-03-22T03:35:52.788Z,22.40
2018-03-22T03:36:52.779Z,25.70
2018-03-22T03:37:52.772Z,22.10
2018-03-22T03:38:52.762Z,23.10
2018-03-22T03:39:52.754Z,24.20
2018-03-22T03:40:52.745Z,24.70
2018-03-22T03:41:52.737Z,23.30
2018-03-22T03:42:52.732Z,23.60
2018-03-22T03:43:52.719Z,24.00
2018-03-22T03:44:52.713Z,24.30
2018-03-22T03:45:52.699Z,23.80
2018-03-22T03:46:52.697Z,26.10
2018-03-22T03:47:52.692Z,26.80
2018-03-22T03:48:52.677Z,25.10
2018-03-22T03:49:52.669Z,23.00
2018-03-22T03:50:52.658Z,25.90
2018-03-22T03:51:52.653Z,24.90
2018-03-22T03:52:52.644Z,27.70
2018-03-22T03:53:52.638Z,23.60
2018-03-22T03:54:52.626Z,25.30
2018-03-22T03:55:52.617Z,25.60
2018-03-22T03:56:52.610Z,23.90
2018-03-22T03:57:52.600Z,24.10
2018-03-22T03:58:52.594Z,25.60
2018-03-22T03:59:52.583Z,24.40
2018-03-22T04:00:52.575Z,25.10
2018-03-22T04:01:52.564Z,24.50
2018-03-22T04:02:52.562Z,24.10
2018-03-22T04:03:52.549Z,24.50
2018-03-22T04:04:52.541Z,26.00
2018-03-22T04:05:52.536Z,25.30
2018-03-22T04:06:52.523Z,25.80
2018-03-22T04:07:52.515Z,25.10
2018-03-22T04:08:52.510Z,24.80
2018-03-22T04:09:52.505Z,24.50
2018-03-22T04:10:52.487Z,26.60
2018-03-22T04:11:52.482Z,26.20
2018-03-22T04:12:52.473Z,24.80
2018-03-22T04:13:52.468Z,26.20
2018-03-22T04:14:52.462Z,24.70
2018-03-22T04:15:52.446Z,25.70
2018-03-22T04:16:52.439Z,27.00
2018-03-22T04:17:52.430Z,27.50
2018-03-22T04:18:52.428Z,25.70
2018-03-22T04:19:52.412Z,25.30
2018-03-22T04:20:52.405Z,24.80
2018-03-22T04:21:52.396Z,24.80
2018-03-22T04:22:52.387Z,26.90
2018-03-22T04:23:52.377Z,27.10
2018-03-22T04:24:52.373Z,26.30
2018-03-22T04:25:52.364Z,24.40
2018-03-22T04:26:52.389Z,26.10
2018-03-22T04:27:52.342Z,26.40
2018-03-22T04:28:52.336Z,28.60
2018-03-22T04:29:52.328Z,26.70
2018-03-22T04:30:52.320Z,26.30
2018-03-22T04:31:52.311Z,25.00
2018-03-22T04:32:52.301Z,26.20
2018-03-22T04:33:52.295Z,28.30
2018-03-22T04:34:52.283Z,26.40
2018-03-22T04:35:52.276Z,25.00
2018-03-22T04:36:52.268Z,27.00
2018-03-22T04:37:52.259Z,27.70
2018-03-22T04:38:52.255Z,29.10
2018-03-22T04:39:52.242Z,27.70
2018-03-22T04:40:52.233Z,28.60
2018-03-22T04:41:52.224Z,27.50
2018-03-22T04:42:52.217Z,27.40
2018-03-22T04:43:52.210Z,27.60
2018-03-22T04:44:52.200Z,28.10
2018-03-22T04:45:52.192Z,26.40
2018-03-22T04:46:52.183Z,27.80
2018-03-22T04:47:52.176Z,28.10
2018-03-22T04:48:52.167Z,26.60
2018-03-22T04:49:52.157Z,28.50
2018-03-22T04:50:52.149Z,27.40
2018-03-22T04:51:52.139Z,26.00
2018-03-22T04:52:52.131Z,25.60
2018-03-22T04:53:52.125Z,26.50
2018-03-22T04:54:52.115Z,26.70
2018-03-22T04:55:52.104Z,27.80
2018-03-22T04:56:52.096Z,27.60
2018-03-22T04:57:52.094Z,27.10
2018-03-22T04:58:52.080Z,26.90
2018-03-22T04:59:52.070Z,28.40
2018-03-22T05:00:52.064Z,26.40
2018-03-22T05:01:52.059Z,26.50
2018-03-22T05:02:52.054Z,26.40
2018-03-22T05:03:52.035Z,28.40
2018-03-22T05:04:52.033Z,27.00
2018-03-22T05:05:52.017Z,27.10
2018-03-22T05:06:52.036Z,26.10
2018-03-22T05:07:52.006Z,27.90
2018-03-22T05:08:51.992Z,27.10
2018-03-22T05:09:51.987Z,26.70
2018-03-22T05:10:51.971Z,26.70
2018-03-22T05:11:51.966Z,26.00
2018-03-22T05:12:51.958Z,27.30
2018-03-22T05:13:51.950Z,27.80
2018-03-22T05:14:51.942Z,26.40
2018-03-22T05:15:51.932Z,28.60
2018-03-22T05:16:51.925Z,26.80
2018-03-22T05:17:51.914Z,26.60
2018-03-22T05:18:51.908Z,29.20
2018-03-22T05:19:51.898Z,27.40
2018-03-22T05:20:51.890Z,27.30
2018-03-22T05:21:51.881Z,26.60
2018-03-22T05:22:51.875Z,26.00
2018-03-22T05:23:51.862Z,25.30
2018-03-22T05:24:51.855Z,26.50
2018-03-22T05:25:51.848Z,25.40
2018-03-22T05:26:51.839Z,26.60
2018-03-22T05:27:51.829Z,26.60
2018-03-22T05:28:51.824Z,27.50
2018-03-22T05:29:51.813Z,26.90
2018-03-22T05:30:51.805Z,26.10
2018-03-22T05:31:51.795Z,26.70
2018-03-22T05:32:51.785Z,26.40
2018-03-22T05:33:51.778Z,26.80
2018-03-22T05:34:51.770Z,26.40
2018-03-22T05:35:51.764Z,26.80
2018-03-22T05:36:51.752Z,26.80
2018-03-22T05:37:51.741Z,28.70
2018-03-22T05:38:51.736Z,26.50
2018-03-22T05:39:51.754Z,25.80
2018-03-22T05:40:51.724Z,26.40
2018-03-22T05:41:51.711Z,25.80
2018-03-22T05:42:51.701Z,27.20
2018-03-22T05:43:51.691Z,26.30
2018-03-22T05:44:51.682Z,26.20
2018-03-22T05:45:51.673Z,27.80
2018-03-22T05:46:51.666Z,27.00
2018-03-22T05:47:51.659Z,28.30
2018-03-22T05:48:51.648Z,26.40
2018-03-22T05:49:51.642Z,27.70
2018-03-22T05:50:51.632Z,27.00
2018-03-22T05:51:51.643Z,27.70
2018-03-22T05:52:51.614Z,27.10
2018-03-22T05:53:51.607Z,29.20
2018-03-22T05:54:51.599Z,29.00
2018-03-22T05:55:51.588Z,29.80
2018-03-22T05:56:51.583Z,28.90
2018-03-22T05:57:51.581Z,29.90
2018-03-22T05:58:51.563Z,32.60
2018-03-22T05:59:51.555Z,30.50
2018-03-22T06:00:51.546Z,31.10
2018-03-22T06:01:51.538Z,30.10
2018-03-22T06:02:51.528Z,31.10
2018-03-22T06:03:51.519Z,31.60
2018-03-22T06:04:51.510Z,31.50
2018-03-22T06:05:51.503Z,32.70
2018-03-22T06:06:51.496Z,33.60
2018-03-22T06:07:51.487Z,34.10
2018-03-22T06:08:51.486Z,34.20
2018-03-22T06:09:51.470Z,35.40
2018-03-22T06:10:51.461Z,36.00
2018-03-22T06:11:51.455Z,39.80
2018-03-22T06:12:51.448Z,38.80
2018-03-22T06:13:51.436Z,37.70
2018-03-22T06:14:51.426Z,36.20
2018-03-22T06:15:51.417Z,37.90
2018-03-22T06:16:51.414Z,37.10
2018-03-22T06:17:51.396Z,36.10
2018-03-22T06:18:51.393Z,37.30
2018-03-22T06:19:51.383Z,35.60
2018-03-22T06:20:51.377Z,38.30
2018-03-22T06:21:51.367Z,36.00
2018-03-22T06:22:51.359Z,35.00
2018-03-22T06:23:51.347Z,35.00
2018-03-22T06:24:51.339Z,34.50
2018-03-22T06:25:51.331Z,34.20
2018-03-22T06:26:51.328Z,34.70
2018-03-22T06:27:51.313Z,34.60
2018-03-22T06:28:51.303Z,37.10
2018-03-22T06:29:51.297Z,33.40
2018-03-22T06:30:51.287Z,32.40
2018-03-22T06:31:51.279Z,32.60
2018-03-22T06:32:51.290Z,32.50
2018-03-22T06:33:51.264Z,32.40
2018-03-22T06:34:51.253Z,33.90
2018-03-22T06:35:51.242Z,32.60
2018-03-22T06:36:51.236Z,34.00
2018-03-22T06:37:51.229Z,31.80
2018-03-22T06:38:51.221Z,34.10
2018-03-22T06:39:51.210Z,33.50
2018-03-22T06:40:51.203Z,32.80
2018-03-22T06:41:51.194Z,41.00
2018-03-22T06:42:51.184Z,34.90
2018-03-22T06:43:51.182Z,37.60
2018-03-22T06:44:51.166Z,36.90
2018-03-22T06:45:51.158Z,35.80
2018-03-22T06:46:51.151Z,35.90
2018-03-22T06:47:51.142Z,38.50
2018-03-22T06:48:51.142Z,38.50
2018-03-22T06:49:51.125Z,39.00
2018-03-22T06:50:51.117Z,41.20
2018-03-22T06:51:51.109Z,42.80
2018-03-22T06:52:51.098Z,46.00
2018-03-22T06:53:51.095Z,47.30
2018-03-22T06:54:51.087Z,47.70
2018-03-22T06:55:51.072Z,48.10
2018-03-22T06:56:51.064Z,53.20
2018-03-22T06:57:51.056Z,54.80
2018-03-22T06:58:51.050Z,53.60
2018-03-22T06:59:51.040Z,55.40
2018-03-22T07:00:51.029Z,56.10
2018-03-22T07:01:51.021Z,60.10
2018-03-22T07:02:51.013Z,58.80
2018-03-22T07:03:51.004Z,62.00
2018-03-22T07:04:50.992Z,69.00
2018-03-22T07:05:50.992Z,68.10
2018-03-22T07:06:51.011Z,69.30
2018-03-22T07:07:50.975Z,71.80
2018-03-22T07:08:50.970Z,74.10
2018-03-22T07:09:50.951Z,75.40
2018-03-22T07:10:50.944Z,83.30
2018-03-22T07:11:50.933Z,80.60
2018-03-22T07:12:50.924Z,82.60
2018-03-22T07:13:50.915Z,87.10
2018-03-22T07:14:50.911Z,94.50
2018-03-22T07:15:50.897Z,89.20
2018-03-22T07:16:50.889Z,91.30
2018-03-22T07:17:50.894Z,93.00
2018-03-22T07:18:50.870Z,99.90
2018-03-22T07:19:50.911Z,91.90
2018-03-22T07:20:50.854Z,88.50
2018-03-22T07:21:50.845Z,89.00
2018-03-22T07:22:50.839Z,95.60
2018-03-22T07:23:50.824Z,85.50
2018-03-22T07:24:50.816Z,80.30
2018-03-22T07:25:50.809Z,84.40
2018-03-22T07:26:50.800Z,80.00
2018-03-22T07:27:50.790Z,77.40
2018-03-22T07:28:50.793Z,78.30
2018-03-22T07:29:50.771Z,75.50
2018-03-22T07:30:50.765Z,74.60
2018-03-22T07:31:50.754Z,74.90
2018-03-22T07:32:50.757Z,73.90
2018-03-22T07:33:50.736Z,66.20
2018-03-22T07:34:50.730Z,60.40
2018-03-22T07:35:50.720Z,63.20
2018-03-22T07:36:50.732Z,61.70
2018-03-22T07:37:50.706Z,59.50
2018-03-22T07:38:50.704Z,56.50
2018-03-22T07:39:50.682Z,56.90
2018-03-22T07:40:50.677Z,57.20
2018-03-22T07:41:50.663Z,60.20
2018-03-22T07:42:50.662Z,56.30
2018-03-22T07:43:50.698Z,53.30
2018-03-22T07:44:50.641Z,54.30
2018-03-22T07:45:50.630Z,55.00
2018-03-22T07:46:50.620Z,51.20
2018-03-22T07:47:50.610Z,49.30
2018-03-22T07:48:50.600Z,52.30
2018-03-22T07:49:50.590Z,51.80
2018-03-22T07:50:50.582Z,52.00
2018-03-22T07:51:50.572Z,48.20
2018-03-22T07:52:50.563Z,48.90
2018-03-22T07:53:50.557Z,50.40
2018-03-22T07:54:50.547Z,49.80
2018-03-22T07:55:50.544Z,47.70
2018-03-22T07:56:50.527Z,45.80
2018-03-22T07:57:50.518Z,46.30
2018-03-22T07:58:50.509Z,46.80
2018-03-22T07:59:50.501Z,46.30
2018-03-22T08:00:50.492Z,48.30
2018-03-22T08:01:50.484Z,50.10
2018-03-22T08:02:50.477Z,46.80
2018-03-22T08:03:50.462Z,47.00
2018-03-22T08:04:50.454Z,45.90
2018-03-22T08:05:50.469Z,49.30
2018-03-22T08:06:50.436Z,47.10
2018-03-22T08:07:50.427Z,51.10
2018-03-22T08:08:50.424Z,52.40
2018-03-22T08:09:50.410Z,53.50
2018-03-22T08:10:50.399Z,53.20
2018-03-22T08:11:50.390Z,52.10
2018-03-22T08:12:50.384Z,50.00
2018-03-22T08:13:50.372Z,54.40
2018-03-22T08:14:50.363Z,56.00
2018-03-22T08:15:50.353Z,51.20
2018-03-22T08:16:50.346Z,50.60
2018-03-22T08:17:50.342Z,51.50
2018-03-22T08:18:50.327Z,55.70
2018-03-22T08:19:50.317Z,49.40
2018-03-22T08:20:50.307Z,51.20
2018-03-22T08:21:50.300Z,53.30
2018-03-22T08:22:50.292Z,54.70
2018-03-22T08:23:50.281Z,51.10
2018-03-22T08:24:50.273Z,53.00
2018-03-22T08:25:50.267Z,50.60
2018-03-22T08:26:50.259Z,50.10
2018-03-22T08:27:50.252Z,53.70
2018-03-22T08:28:50.236Z,52.30
2018-03-22T08:29:50.228Z,54.20
2018-03-22T08:30:50.243Z,53.80
2018-03-22T08:31:50.209Z,52.00
2018-03-22T08:32:50.217Z,55.60
2018-03-22T08:33:50.190Z,54.00
2018-03-22T08:34:50.192Z,49.10
2018-03-22T08:35:50.177Z,50.00
2018-03-22T08:36:50.166Z,48.00
2018-03-22T08:37:50.159Z,46.90
2018-03-22T08:38:50.148Z,51.40
2018-03-22T08:39:50.142Z,51.10
2018-03-22T08:40:50.130Z,51.30
2018-03-22T08:41:50.121Z,51.10
2018-03-22T08:42:50.114Z,52.50
2018-03-22T08:43:50.103Z,50.80
2018-03-22T08:44:50.097Z,52.30
2018-03-22T08:45:50.091Z,54.40
2018-03-22T08:46:50.082Z,49.50
2018-03-22T08:47:50.069Z,52.40
2018-03-22T08:48:50.063Z,49.90
2018-03-22T08:49:50.052Z,49.00
2018-03-22T08:50:50.045Z,48.70
2018-03-22T08:51:50.061Z,52.40
2018-03-22T08:52:50.025Z,50.30
2018-03-22T08:53:50.017Z,50.10
2018-03-22T08:54:50.038Z,50.20
2018-03-22T08:55:50.002Z,49.90
2018-03-22T08:56:49.994Z,51.60
2018-03-22T08:57:49.981Z,50.30
2018-03-22T08:58:49.975Z,55.90
2018-03-22T08:59:49.968Z,49.20
2018-03-22T09:00:49.954Z,50.90
2018-03-22T09:01:49.947Z,49.30
2018-03-22T09:02:49.936Z,49.30
2018-03-22T09:03:49.936Z,48.00
2018-03-22T09:04:49.920Z,50.00
2018-03-22T09:05:49.912Z,54.10
2018-03-22T09:06:49.917Z,49.70
2018-03-22T09:07:49.894Z,53.50
2018-03-22T09:08:49.890Z,55.40
2018-03-22T09:09:49.954Z,53.40
2018-03-22T09:10:49.920Z,53.90
2018-03-22T09:11:49.858Z,51.80
2018-03-22T09:12:49.849Z,56.60
2018-03-22T09:13:49.843Z,52.70
2018-03-22T09:14:49.833Z,55.60
2018-03-22T09:15:49.823Z,63.30
2018-03-22T09:16:49.815Z,57.30
2018-03-22T09:17:49.808Z,59.60
2018-03-22T09:18:49.795Z,55.70
2018-03-22T09:19:49.794Z,59.80
2018-03-22T09:20:49.783Z,60.20
2018-03-22T09:21:49.769Z,59.40
2018-03-22T09:22:49.762Z,58.70
2018-03-22T09:23:49.754Z,61.10
2018-03-22T09:24:49.747Z,59.40
2018-03-22T09:25:49.739Z,64.00
2018-03-22T09:26:49.729Z,58.80
2018-03-22T09:27:49.758Z,59.50
2018-03-22T09:28:49.711Z,55.70
2018-03-22T09:29:49.702Z,60.80
2018-03-22T09:30:49.694Z,58.20
2018-03-22T09:31:49.686Z,61.10
2018-03-22T09:32:49.678Z,63.50
2018-03-22T09:33:49.668Z,63.50
2018-03-22T09:34:49.699Z,65.50
2018-03-22T09:35:49.647Z,55.60
2018-03-22T09:36:49.642Z,59.80
2018-03-22T09:37:49.633Z,62.10
2018-03-22T09:38:49.624Z,60.50
2018-03-22T09:39:49.614Z,59.70
2018-03-22T09:40:49.606Z,63.90
2018-03-22T09:41:49.639Z,63.90
2018-03-22T09:42:49.589Z,64.00
2018-03-22T09:43:49.581Z,59.80
2018-03-22T09:44:49.574Z,64.00
2018-03-22T09:45:49.562Z,65.50
2018-03-22T09:46:49.828Z,62.90
2018-03-22T09:47:49.545Z,57.40
2018-03-22T09:48:49.539Z,56.90
2018-03-22T09:49:49.527Z,59.90
2018-03-22T09:50:49.519Z,66.10
2018-03-22T09:51:49.509Z,58.50
2018-03-22T09:52:49.508Z,59.00
2018-03-22T09:53:49.493Z,59.30
2018-03-22T09:54:49.483Z,57.50
2018-03-22T09:55:49.472Z,61.00
2018-03-22T09:56:49.473Z,59.50
2018-03-22T09:57:49.458Z,60.50
2018-03-22T09:58:49.450Z,60.10
2018-03-22T09:59:49.440Z,58.50
2018-03-22T10:00:49.432Z,70.60
2018-03-22T10:01:49.424Z,70.40
2018-03-22T10:02:49.459Z,72.80
2018-03-22T10:03:49.409Z,65.60
2018-03-22T10:04:49.396Z,62.20
2018-03-22T10:05:49.389Z,66.30
2018-03-22T10:06:49.378Z,70.10
2018-03-22T10:07:49.381Z,69.00
2018-03-22T10:08:49.364Z,73.80
2018-03-22T10:09:49.361Z,63.90
2018-03-22T10:10:49.345Z,67.50
2018-03-22T10:11:49.336Z,63.50
2018-03-22T10:12:49.335Z,66.30
2018-03-22T10:13:49.319Z,63.50
2018-03-22T10:14:49.311Z,66.00
2018-03-22T10:15:49.303Z,72.60
2018-03-22T10:16:49.293Z,64.70
2018-03-22T10:17:49.285Z,68.00
2018-03-22T10:18:49.276Z,71.90
2018-03-22T10:19:49.266Z,70.20
2018-03-22T10:20:49.260Z,72.80
2018-03-22T10:21:49.248Z,68.00
2018-03-22T10:22:49.242Z,68.10
2018-03-22T10:23:49.231Z,69.00
2018-03-22T10:24:49.224Z,66.50
2018-03-22T10:25:49.215Z,67.20
2018-03-22T10:26:49.209Z,75.30
2018-03-22T10:27:49.205Z,79.40
2018-03-22T10:28:49.194Z,78.20
2018-03-22T10:29:49.182Z,88.40
2018-03-22T10:30:49.174Z,82.70
2018-03-22T10:31:49.165Z,83.70
2018-03-22T10:32:49.158Z,74.80
2018-03-22T10:33:49.148Z,74.50
2018-03-22T10:34:49.147Z,76.10
2018-03-22T10:35:49.132Z,76.20
2018-03-22T10:36:49.136Z,74.40
2018-03-22T10:37:49.112Z,71.80
2018-03-22T10:38:49.106Z,77.20
2018-03-22T10:39:49.102Z,75.50
2018-03-22T10:40:49.088Z,73.90
2018-03-22T10:41:49.079Z,79.50
2018-03-22T10:42:49.128Z,77.10
2018-03-22T10:43:49.061Z,72.00
2018-03-22T10:44:49.054Z,74.10
2018-03-22T10:45:49.047Z,80.20
2018-03-22T10:46:49.037Z,78.30
2018-03-22T10:47:49.023Z,79.90
2018-03-22T10:48:49.020Z,76.30
2018-03-22T10:49:49.013Z,82.60
2018-03-22T10:50:49.012Z,76.70
2018-03-22T10:51:48.994Z,73.30
2018-03-22T10:52:48.985Z,84.00
2018-03-22T10:53:48.979Z,84.50
2018-03-22T10:54:48.974Z,90.60
2018-03-22T10:55:48.957Z,92.40
2018-03-22T10:56:48.951Z,82.70
2018-03-22T10:57:48.944Z,79.90
2018-03-22T10:58:48.933Z,79.60
2018-03-22T10:59:48.930Z,84.20
2018-03-22T11:00:48.920Z,78.20
2018-03-22T11:01:48.908Z,83.00
2018-03-22T11:02:48.899Z,93.40
2018-03-22T11:03:48.892Z,88.20
2018-03-22T11:04:48.882Z,82.50
2018-03-22T11:05:48.875Z,91.60
2018-03-22T11:06:48.865Z,85.90
2018-03-22T11:07:48.855Z,94.90
2018-03-22T11:08:48.847Z,93.80
2018-03-22T11:09:48.839Z,92.50
2018-03-22T11:10:48.831Z,86.00
2018-03-22T11:11:48.821Z,92.80
2018-03-22T11:12:48.818Z,95.10
2018-03-22T11:13:48.843Z,87.80
2018-03-22T11:14:48.795Z,93.20
2018-03-22T11:15:48.786Z,97.10
2018-03-22T11:16:48.778Z,98.90
2018-03-22T11:17:48.770Z,94.60
2018-03-22T11:18:48.760Z,113.80
2018-03-22T11:19:48.778Z,109.80
2018-03-22T11:20:48.742Z,97.20
2018-03-22T11:21:48.731Z,101.80
2018-03-22T11:22:48.725Z,94.40
2018-03-22T11:23:48.716Z,96.70
2018-03-22T11:24:48.711Z,92.70
2018-03-22T11:25:48.703Z,96.70
2018-03-22T11:26:48.693Z,101.00
2018-03-22T11:27:48.685Z,96.50
2018-03-22T11:28:48.677Z,98.20
2018-03-22T11:29:48.667Z,101.60
2018-03-22T11:30:48.660Z,92.40
2018-03-22T11:31:48.651Z,104.90
2018-03-22T11:32:48.641Z,96.20
2018-03-22T11:33:48.631Z,98.40
2018-03-22T11:34:48.623Z,92.60
2018-03-22T11:35:48.669Z,88.80
2018-03-22T11:36:48.609Z,85.20
2018-03-22T11:37:48.599Z,94.30
2018-03-22T11:38:48.592Z,89.80
2018-03-22T11:39:48.588Z,96.00
2018-03-22T11:40:48.574Z,89.30
2018-03-22T11:41:48.565Z,98.10
2018-03-22T11:42:48.556Z,95.90
2018-03-22T11:43:48.546Z,96.10
2018-03-22T11:44:48.536Z,87.60
2018-03-22T11:45:48.533Z,88.70
2018-03-22T11:46:48.520Z,88.80
2018-03-22T11:47:48.511Z,92.70
2018-03-22T11:48:48.502Z,91.80
2018-03-22T11:49:48.495Z,87.80
2018-03-22T11:50:48.528Z,87.90
2018-03-22T11:51:48.515Z,86.90
2018-03-22T11:52:48.512Z,87.50
2018-03-22T11:53:48.537Z,80.70
2018-03-22T11:54:48.474Z,81.40
2018-03-22T11:55:48.464Z,89.50
2018-03-22T11:56:48.455Z,91.70
2018-03-22T11:57:48.429Z,81.30
2018-03-22T11:58:48.419Z,82.50
2018-03-22T11:59:48.410Z,80.30
2018-03-22T12:00:48.417Z,78.70
2018-03-22T12:01:48.395Z,72.70
2018-03-22T12:02:48.383Z,71.90
2018-03-22T12:03:48.377Z,71.00
2018-03-22T12:04:48.385Z,76.30
2018-03-22T12:05:48.361Z,74.50
2018-03-22T12:06:48.358Z,75.90
2018-03-22T12:07:48.343Z,72.70
2018-03-22T12:08:48.335Z,73.10
2018-03-22T12:09:48.328Z,78.30
2018-03-22T12:10:48.376Z,70.50
2018-03-22T12:11:48.348Z,71.20
2018-03-22T12:12:48.301Z,70.50
2018-03-22T12:13:48.300Z,73.70
2018-03-22T12:14:48.287Z,73.00
2018-03-22T12:15:48.278Z,75.50
2018-03-22T12:16:48.322Z,73.50
2018-03-22T12:17:48.261Z,74.20
2018-03-22T12:18:48.253Z,79.30
2018-03-22T12:19:48.243Z,83.10
2018-03-22T12:20:48.243Z,79.60
2018-03-22T12:21:48.240Z,79.40
2018-03-22T12:22:48.220Z,84.10
2018-03-22T12:23:48.210Z,84.40
2018-03-22T12:24:48.209Z,79.30
2018-03-22T12:25:48.195Z,83.10
2018-03-22T12:26:48.189Z,82.00
2018-03-22T12:27:48.175Z,95.60
2018-03-22T12:28:48.170Z,92.40
2018-03-22T12:29:48.162Z,84.40
2018-03-22T12:30:48.155Z,79.30
2018-03-22T12:31:48.164Z,72.70
2018-03-22T12:32:48.136Z,79.80
2018-03-22T12:33:48.131Z,75.60
2018-03-22T12:34:48.138Z,75.20
2018-03-22T12:35:48.112Z,76.30
2018-03-22T12:36:48.105Z,73.80
2018-03-22T12:37:48.096Z,70.10
2018-03-22T12:38:48.091Z,77.40
2018-03-22T12:39:48.232Z,80.80
2018-03-22T12:40:48.080Z,73.10
2018-03-22T12:41:48.064Z,70.50
2018-03-22T12:42:48.057Z,76.60
2018-03-22T12:43:48.048Z,70.10
2018-03-22T12:44:48.120Z,70.30
2018-03-22T12:45:48.035Z,75.70
2018-03-22T12:46:48.028Z,67.70
2018-03-22T12:47:48.016Z,72.60
2018-03-22T12:48:48.006Z,71.00
2018-03-22T12:49:48.000Z,72.00
2018-03-22T12:50:47.988Z,84.40
2018-03-22T12:51:47.990Z,74.20
2018-03-22T12:52:47.976Z,72.80